Terminal Aerodrome Forecast
Issued by NWS

Home | Current Version | Previous Version | Graphics & Text | Print | Product List | Glossary On
Versions: 1 2 3 4 5 6 7 8 9 10 11 12 13 14 15 16 17
000
FTUS43 KGRB 251200 AAA
TAFCWA
TAF AMD
KCWA 251236Z 2513/2612 20005KT 6SM -RA HZ SCT018 SCT035 BKN100
      TEMPO 2513/2515 BKN018
     FM251800 22009G17KT P6SM SCT035 SCT080
     FM252300 27004KT P6SM SCT040 SCT070
     FM260400 31005KT P6SM SCT050 BKN080=

USA.gov is the U.S. government's official web portal to all federal, state and local government web resources and services.